Terminal Aerodrome Forecast
Issued by NWS

Home | Current Version | Previous Version | Text Only | Print | Product List | Glossary On
Versions: 1 2 3 4 5 6 7 8 9 10 11 12 13 14
111
FTUS44 KEPZ 281121
TAFTCS
TAF
KTCS 281121Z 2812/0112 21012KT P6SM SCT140 BKN250
     FM281500 21015G25KT P6SM SCT100 BKN150
     FM281800 24029G37KT P6SM SCT080 BKN150
     FM010100 27019G26KT P6SM FEW080
     FM010300 32011KT P6SM SKC=

USA.gov is the U.S. government's official web portal to all federal, state and local government web resources and services.